CheckWX is a tool to help pilots better visualize weather data.  It is not intended as a substitute for an official pre-flight weather briefing.

18:34:19 UTC

KGSO METAR
Piedmont Triad International Airport
Greensboro, North Carolina, USA
Current

29 mins ago

KGSO 221805Z 06013KT 2 1/2SM -DZ BR BKN005 OVC009 08/08 A3030 RMK AO2 P0000 T00830083
Observed
Feb-22 @ 18:05 UTC
Wind
  • 060° at 13 KTS
Visibility
2 1/2 SM
Flight Rules
IFR
Conditions
Light Drizzle, Mist
Cloud Levels
  • Broken at 500' AGL
  • Overcast at 900' AGL
Temperature
C / 46°F
Dewpoint
C / 46°F
Humidity
100%
Altimeter
30.3" Hg
Pressure
1026.12 hPa
Current Rain
0.01"
Previous

40 mins ago

KGSO 221754Z 06011KT 3SM -DZ BR BKN005 OVC009 09/08 A3031 RMK AO2 SLP263 RAE11DZB11 P0000 60032 T00890083 10089 20067 58002
Observed
Feb-22 @ 17:54 UTC
Wind
  • 060° at 11 KTS
Visibility
3 SM
Flight Rules
IFR
Conditions
Light Drizzle, Mist
Cloud Levels
  • Broken at 500' AGL
  • Overcast at 900' AGL
Temperature
C / 48°F
Dewpoint
C / 46°F
Humidity
94%
Altimeter
30.31" Hg
Pressure
1026.3 hPa
Current Rain
0.01"
Previous

1 hour ago

KGSO 221731Z 06012KT 3SM -DZ BR BKN005 OVC009 09/08 A3032 RMK AO2 RAE11DZB11 P0000 T00890083
Observed
Feb-22 @ 17:31 UTC
Wind
  • 060° at 12 KTS
Visibility
3 SM
Flight Rules
IFR
Conditions
Light Drizzle, Mist
Cloud Levels
  • Broken at 500' AGL
  • Overcast at 900' AGL
Temperature
C / 48°F
Dewpoint
C / 46°F
Humidity
94%
Altimeter
30.32" Hg
Pressure
1026.72 hPa
Current Rain
0.01"